sensor_id;sensor_type;location;lat;lon;timestamp;pressure;altitude;pressure_sealevel;temperature;humidity
49377;BME280;35253;34.688;33.040;2023-02-15T00:01:07;101381.00;;;9.92;76.44
49377;BME280;35253;34.688;33.040;2023-02-15T00:03:33;101380.94;;;9.93;76.29
49377;BME280;35253;34.688;33.040;2023-02-15T00:05:58;101385.41;;;9.93;74.60
49377;BME280;35253;34.688;33.040;2023-02-15T00:08:24;101379.28;;;9.91;73.30
49377;BME280;35253;34.688;33.040;2023-02-15T00:10:49;101386.88;;;10.00;73.29
49377;BME280;35253;34.688;33.040;2023-02-15T00:13:15;101382.06;;;9.88;73.17
49377;BME280;35253;34.688;33.040;2023-02-15T00:15:40;101378.47;;;9.89;72.82
49377;BME280;35253;34.688;33.040;2023-02-15T00:18:06;101379.56;;;9.85;71.80
49377;BME280;35253;34.688;33.040;2023-02-15T00:20:31;101379.72;;;9.82;71.97
49377;BME280;35253;34.688;33.040;2023-02-15T00:22:57;101382.94;;;9.88;71.65
49377;BME280;35253;34.688;33.040;2023-02-15T00:25:22;101385.13;;;9.99;70.13
49377;BME280;35253;34.688;33.040;2023-02-15T00:27:48;101381.41;;;10.03;70.23
49377;BME280;35253;34.688;33.040;2023-02-15T00:30:14;101383.41;;;9.98;70.01
49377;BME280;35253;34.688;33.040;2023-02-15T00:32:39;101378.47;;;9.89;70.73
49377;BME280;35253;34.688;33.040;2023-02-15T00:35:05;101370.78;;;9.63;71.66
49377;BME280;35253;34.688;33.040;2023-02-15T00:37:31;101375.72;;;9.72;72.03
49377;BME280;35253;34.688;33.040;2023-02-15T00:39:57;101383.03;;;9.67;72.07
49377;BME280;35253;34.688;33.040;2023-02-15T00:42:23;101384.38;;;9.77;71.47
49377;BME280;35253;34.688;33.040;2023-02-15T00:44:48;101383.69;;;9.72;72.52
49377;BME280;35253;34.688;33.040;2023-02-15T00:47:13;101373.78;;;9.75;72.21
49377;BME280;35253;34.688;33.040;2023-02-15T00:49:39;101366.66;;;9.76;72.53
49377;BME280;35253;34.688;33.040;2023-02-15T00:52:04;101367.78;;;9.90;73.41
49377;BME280;35253;34.688;33.040;2023-02-15T00:54:30;101370.03;;;10.00;72.39
49377;BME280;35253;34.688;33.040;2023-02-15T00:56:55;101360.00;;;9.86;72.91
49377;BME280;35253;34.688;33.040;2023-02-15T00:59:21;101352.31;;;9.99;73.86
49377;BME280;35253;34.688;33.040;2023-02-15T01:01:46;101350.63;;;9.77;74.84
49377;BME280;35253;34.688;33.040;2023-02-15T01:04:12;101344.66;;;9.52;76.46
49377;BME280;35253;34.688;33.040;2023-02-15T01:06:37;101338.63;;;9.67;75.47
49377;BME280;35253;34.688;33.040;2023-02-15T01:09:03;101343.13;;;9.85;75.83
49377;BME280;35253;34.688;33.040;2023-02-15T01:11:28;101342.84;;;9.73;77.65
49377;BME280;35253;34.688;33.040;2023-02-15T01:13:55;101341.16;;;9.70;79.03
49377;BME280;35253;34.688;33.040;2023-02-15T01:16:22;101341.56;;;9.81;78.92
49377;BME280;35253;34.688;33.040;2023-02-15T01:18:47;101335.41;;;9.79;81.08
49377;BME280;35253;34.688;33.040;2023-02-15T01:21:14;101339.34;;;9.91;82.19
49377;BME280;35253;34.688;33.040;2023-02-15T01:23:40;101333.25;;;9.87;83.34
49377;BME280;35253;34.688;33.040;2023-02-15T01:26:06;101331.16;;;9.95;85.28
49377;BME280;35253;34.688;33.040;2023-02-15T01:28:32;101333.59;;;10.00;86.70
49377;BME280;35253;34.688;33.040;2023-02-15T01:30:57;101344.25;;;10.00;87.12
49377;BME280;35253;34.688;33.040;2023-02-15T01:33:24;101335.72;;;9.92;89.27
49377;BME280;35253;34.688;33.040;2023-02-15T01:35:55;101330.81;;;9.83;91.38
49377;BME280;35253;34.688;33.040;2023-02-15T01:38:20;101334.00;;;9.91;91.99
49377;BME280;35253;34.688;33.040;2023-02-15T01:40:46;101332.13;;;9.93;91.99
49377;BME280;35253;34.688;33.040;2023-02-15T01:43:11;101318.03;;;9.91;93.60
49377;BME280;35253;34.688;33.040;2023-02-15T01:45:37;101325.06;;;9.92;93.75
49377;BME280;35253;34.688;33.040;2023-02-15T01:48:04;101319.47;;;9.98;95.45
49377;BME280;35253;34.688;33.040;2023-02-15T01:50:35;101319.31;;;10.01;95.93
49377;BME280;35253;34.688;33.040;2023-02-15T01:55:34;101315.22;;;9.94;96.77
49377;BME280;35253;34.688;33.040;2023-02-15T01:58:01;101312.91;;;10.05;96.50
49377;BME280;35253;34.688;33.040;2023-02-15T02:00:27;101313.69;;;9.88;98.51
49377;BME280;35253;34.688;33.040;2023-02-15T02:02:53;101320.41;;;9.97;98.01
49377;BME280;35253;34.688;33.040;2023-02-15T02:05:20;101321.03;;;9.65;100.00
49377;BME280;35253;34.688;33.040;2023-02-15T02:07:45;101321.03;;;9.44;100.00
49377;BME280;35253;34.688;33.040;2023-02-15T02:10:16;101317.38;;;9.47;100.00
49377;BME280;35253;34.688;33.040;2023-02-15T02:12:43;101325.41;;;9.45;100.00
49377;BME280;35253;34.688;33.040;2023-02-15T02:15:09;101321.03;;;9.65;100.00
49377;BME280;35253;34.688;33.040;2023-02-15T02:23:33;101319.16;;;9.26;100.00
49377;BME280;35253;34.688;33.040;2023-02-15T02:43:51;101320.63;;;9.54;100.00
49377;BME280;35253;34.688;33.040;2023-02-15T02:46:41;101328.34;;;9.60;100.00
49377;BME280;35253;34.688;33.040;2023-02-15T02:49:07;101318.25;;;9.66;100.00
49377;BME280;35253;34.688;33.040;2023-02-15T02:51:33;101317.31;;;9.28;100.00
49377;BME280;35253;34.688;33.040;2023-02-15T02:53:59;101322.28;;;8.74;100.00
49377;BME280;35253;34.688;33.040;2023-02-15T02:58:56;101318.53;;;8.57;100.00
49377;BME280;35253;34.688;33.040;2023-02-15T03:01:32;101313.38;;;8.54;100.00
49377;BME280;35253;34.688;33.040;2023-02-15T03:04:01;101327.19;;;8.41;100.00
49377;BME280;35253;34.688;33.040;2023-02-15T03:06:29;101321.97;;;8.16;100.00
49377;BME280;35253;34.688;33.040;2023-02-15T03:09:01;101320.66;;;8.49;100.00
49377;BME280;35253;34.688;33.040;2023-02-15T03:11:29;101317.94;;;8.73;100.00
49377;BME280;35253;34.688;33.040;2023-02-15T03:13:54;101320.75;;;8.90;100.00
49377;BME280;35253;34.688;33.040;2023-02-15T03:16:20;101328.44;;;8.96;100.00
49377;BME280;35253;34.688;33.040;2023-02-15T03:18:57;101329.56;;;9.12;100.00
49377;BME280;35253;34.688;33.040;2023-02-15T03:21:27;101330.97;;;9.21;100.00
49377;BME280;35253;34.688;33.040;2023-02-15T03:23:57;101330.16;;;9.19;100.00
49377;BME280;35253;34.688;33.040;2023-02-15T03:26:24;101337.16;;;9.21;100.00
49377;BME280;35253;34.688;33.040;2023-02-15T03:28:52;101331.53;;;9.27;100.00
49377;BME280;35253;34.688;33.040;2023-02-15T03:31:19;101334.34;;;8.82;100.00
49377;BME280;35253;34.688;33.040;2023-02-15T03:33:54;101348.47;;;8.63;100.00
49377;BME280;35253;34.688;33.040;2023-02-15T03:36:33;101338.16;;;8.97;100.00
49377;BME280;35253;34.688;33.040;2023-02-15T03:41:29;101340.28;;;8.89;100.00
49377;BME280;35253;34.688;33.040;2023-02-15T03:44:04;101345.59;;;8.89;100.00
49377;BME280;35253;34.688;33.040;2023-02-15T03:46:42;101340.03;;;8.95;100.00
49377;BME280;35253;34.688;33.040;2023-02-15T03:49:17;101337.06;;;9.02;100.00
49377;BME280;35253;34.688;33.040;2023-02-15T03:51:46;101345.13;;;8.99;100.00
49377;BME280;35253;34.688;33.040;2023-02-15T03:54:14;101346.69;;;9.05;100.00
49377;BME280;35253;34.688;33.040;2023-02-15T03:57:01;101349.38;;;8.62;100.00
49377;BME280;35253;34.688;33.040;2023-02-15T03:59:45;101341.88;;;8.93;100.00
49377;BME280;35253;34.688;33.040;2023-02-15T04:02:30;101345.25;;;8.76;100.00
49377;BME280;35253;34.688;33.040;2023-02-15T04:05:00;101345.84;;;8.83;100.00
49377;BME280;35253;34.688;33.040;2023-02-15T04:07:26;101349.25;;;9.08;100.00
49377;BME280;35253;34.688;33.040;2023-02-15T04:09:51;101357.09;;;9.11;100.00
49377;BME280;35253;34.688;33.040;2023-02-15T04:12:35;101352.34;;;9.18;100.00
49377;BME280;35253;34.688;33.040;2023-02-15T04:15:00;101350.84;;;9.12;100.00
49377;BME280;35253;34.688;33.040;2023-02-15T04:17:44;101362.78;;;9.02;100.00
49377;BME280;35253;34.688;33.040;2023-02-15T04:20:10;101357.59;;;8.99;100.00
49377;BME280;35253;34.688;33.040;2023-02-15T04:22:54;101349.28;;;9.07;100.00
49377;BME280;35253;34.688;33.040;2023-02-15T04:25:38;101354.25;;;8.94;100.00
49377;BME280;35253;34.688;33.040;2023-02-15T04:28:03;101360.91;;;9.04;100.00
49377;BME280;35253;34.688;33.040;2023-02-15T04:30:28;101349.88;;;9.13;100.00
49377;BME280;35253;34.688;33.040;2023-02-15T04:32:54;101350.31;;;9.24;100.00
49377;BME280;35253;34.688;33.040;2023-02-15T04:35:21;101348.72;;;9.20;100.00
49377;BME280;35253;34.688;33.040;2023-02-15T04:37:47;101355.91;;;8.96;100.00
49377;BME280;35253;34.688;33.040;2023-02-15T04:40:13;101354.38;;;9.13;100.00
49377;BME280;35253;34.688;33.040;2023-02-15T04:42:39;101362.53;;;8.65;100.00
49377;BME280;35253;34.688;33.040;2023-02-15T04:45:04;101368.94;;;8.14;100.00
49377;BME280;35253;34.688;33.040;2023-02-15T04:47:30;101368.41;;;8.29;100.00
49377;BME280;35253;34.688;33.040;2023-02-15T04:49:55;101368.00;;;8.62;100.00
49377;BME280;35253;34.688;33.040;2023-02-15T04:52:21;101384.06;;;8.37;100.00
49377;BME280;35253;34.688;33.040;2023-02-15T04:54:47;101386.91;;;8.76;100.00
49377;BME280;35253;34.688;33.040;2023-02-15T04:57:12;101386.97;;;8.74;100.00
49377;BME280;35253;34.688;33.040;2023-02-15T04:59:38;101386.00;;;8.98;100.00
49377;BME280;35253;34.688;33.040;2023-02-15T05:02:03;101380.84;;;8.94;100.00
49377;BME280;35253;34.688;33.040;2023-02-15T05:04:28;101393.47;;;8.89;100.00
49377;BME280;35253;34.688;33.040;2023-02-15T05:06:54;101387.41;;;9.07;100.00
49377;BME280;35253;34.688;33.040;2023-02-15T05:09:19;101390.16;;;9.04;100.00
49377;BME280;35253;34.688;33.040;2023-02-15T05:11:45;101392.72;;;9.07;100.00
49377;BME280;35253;34.688;33.040;2023-02-15T05:14:10;101400.81;;;9.04;100.00
49377;BME280;35253;34.688;33.040;2023-02-15T05:16:36;101410.47;;;9.07;100.00
49377;BME280;35253;34.688;33.040;2023-02-15T05:19:02;101412.94;;;9.11;100.00
49377;BME280;35253;34.688;33.040;2023-02-15T05:21:27;101415.28;;;9.19;100.00
49377;BME280;35253;34.688;33.040;2023-02-15T05:23:52;101422.16;;;9.24;100.00
49377;BME280;35253;34.688;33.040;2023-02-15T05:26:19;101438.34;;;9.18;100.00
49377;BME280;35253;34.688;33.040;2023-02-15T05:29:03;101431.16;;;9.42;100.00
49377;BME280;35253;34.688;33.040;2023-02-15T05:31:30;101426.41;;;9.48;100.00
49377;BME280;35253;34.688;33.040;2023-02-15T05:33:55;101430.16;;;9.44;100.00
49377;BME280;35253;34.688;33.040;2023-02-15T05:36:21;101433.47;;;9.49;100.00
49377;BME280;35253;34.688;33.040;2023-02-15T05:38:46;101431.25;;;9.61;100.00
49377;BME280;35253;34.688;33.040;2023-02-15T05:41:12;101426.31;;;9.72;100.00
49377;BME280;35253;34.688;33.040;2023-02-15T05:43:37;101436.34;;;9.85;100.00
49377;BME280;35253;34.688;33.040;2023-02-15T05:46:03;101443.59;;;10.02;100.00
49377;BME280;35253;34.688;33.040;2023-02-15T05:48:29;101441.84;;;10.01;100.00
49377;BME280;35253;34.688;33.040;2023-02-15T05:53:23;101443.59;;;10.22;100.00
49377;BME280;35253;34.688;33.040;2023-02-15T05:55:48;101448.38;;;10.34;100.00
49377;BME280;35253;34.688;33.040;2023-02-15T05:58:14;101457.53;;;10.48;100.00
49377;BME280;35253;34.688;33.040;2023-02-15T06:00:39;101451.19;;;10.69;100.00
49377;BME280;35253;34.688;33.040;2023-02-15T06:03:05;101448.88;;;10.80;100.00
49377;BME280;35253;34.688;33.040;2023-02-15T06:05:30;101455.06;;;10.99;100.00
49377;BME280;35253;34.688;33.040;2023-02-15T06:07:56;101455.47;;;11.27;100.00
49377;BME280;35253;34.688;33.040;2023-02-15T06:10:21;101451.53;;;11.35;100.00
49377;BME280;35253;34.688;33.040;2023-02-15T06:12:47;101448.72;;;11.55;100.00
49377;BME280;35253;34.688;33.040;2023-02-15T06:15:12;101447.25;;;11.66;98.77
49377;BME280;35253;34.688;33.040;2023-02-15T06:17:40;101454.09;;;11.72;100.00
49377;BME280;35253;34.688;33.040;2023-02-15T06:20:06;101456.72;;;11.55;100.00
49377;BME280;35253;34.688;33.040;2023-02-15T06:22:33;101448.72;;;11.55;100.00
49377;BME280;35253;34.688;33.040;2023-02-15T06:24:58;101450.69;;;11.68;97.96
49377;BME280;35253;34.688;33.040;2023-02-15T06:27:24;101451.50;;;11.88;96.59
49377;BME280;35253;34.688;33.040;2023-02-15T06:29:49;101455.50;;;11.96;95.79
49377;BME280;35253;34.688;33.040;2023-02-15T06:32:15;101449.34;;;11.94;94.60
49377;BME280;35253;34.688;33.040;2023-02-15T06:34:40;101447.00;;;11.71;95.33
49377;BME280;35253;34.688;33.040;2023-02-15T06:37:06;101443.88;;;11.97;95.56
49377;BME280;35253;34.688;33.040;2023-02-15T06:39:33;101436.94;;;12.10;94.23
49377;BME280;35253;34.688;33.040;2023-02-15T06:41:58;101446.28;;;12.19;94.61
49377;BME280;35253;34.688;33.040;2023-02-15T06:44:24;101443.41;;;12.06;95.47
49377;BME280;35253;34.688;33.040;2023-02-15T06:46:49;101434.72;;;12.18;95.09
49377;BME280;35253;34.688;33.040;2023-02-15T06:49:15;101446.41;;;12.16;95.45
49377;BME280;35253;34.688;33.040;2023-02-15T06:51:40;101447.13;;;12.19;94.83
49377;BME280;35253;34.688;33.040;2023-02-15T06:54:05;101449.38;;;12.27;95.46
49377;BME280;35253;34.688;33.040;2023-02-15T06:56:31;101452.94;;;12.28;95.60
49377;BME280;35253;34.688;33.040;2023-02-15T06:58:56;101453.69;;;12.30;95.17
49377;BME280;35253;34.688;33.040;2023-02-15T07:01:22;101456.22;;;12.33;95.00
49377;BME280;35253;34.688;33.040;2023-02-15T07:03:48;101459.16;;;12.44;94.44
49377;BME280;35253;34.688;33.040;2023-02-15T07:06:13;101456.19;;;12.50;93.54
49377;BME280;35253;34.688;33.040;2023-02-15T07:08:39;101442.13;;;12.62;93.71
49377;BME280;35253;34.688;33.040;2023-02-15T07:11:05;101451.94;;;12.77;94.43
49377;BME280;35253;34.688;33.040;2023-02-15T07:13:49;101459.13;;;12.92;95.62
49377;BME280;35253;34.688;33.040;2023-02-15T07:16:15;101468.09;;;12.91;99.39
49377;BME280;35253;34.688;33.040;2023-02-15T07:18:40;101459.41;;;12.72;100.00
49377;BME280;35253;34.688;33.040;2023-02-15T07:21:06;101467.94;;;12.63;100.00
49377;BME280;35253;34.688;33.040;2023-02-15T07:23:35;101476.22;;;12.74;100.00
49377;BME280;35253;34.688;33.040;2023-02-15T07:26:00;101478.97;;;12.73;100.00
49377;BME280;35253;34.688;33.040;2023-02-15T07:28:26;101474.66;;;12.70;100.00
49377;BME280;35253;34.688;33.040;2023-02-15T07:30:52;101478.81;;;12.76;100.00
49377;BME280;35253;34.688;33.040;2023-02-15T07:33:17;101474.50;;;12.89;100.00
49377;BME280;35253;34.688;33.040;2023-02-15T07:38:14;101474.19;;;13.11;100.00
49377;BME280;35253;34.688;33.040;2023-02-15T07:40:40;101485.94;;;13.24;100.00
49377;BME280;35253;34.688;33.040;2023-02-15T07:43:05;101480.56;;;13.24;100.00
49377;BME280;35253;34.688;33.040;2023-02-15T07:45:31;101478.75;;;13.24;100.00
49377;BME280;35253;34.688;33.040;2023-02-15T07:47:56;101476.50;;;13.17;100.00
49377;BME280;35253;34.688;33.040;2023-02-15T07:50:21;101482.66;;;13.19;100.00
49377;BME280;35253;34.688;33.040;2023-02-15T07:52:47;101486.59;;;13.27;100.00
49377;BME280;35253;34.688;33.040;2023-02-15T07:55:12;101482.13;;;13.28;100.00
49377;BME280;35253;34.688;33.040;2023-02-15T07:57:42;101489.34;;;13.10;100.00
49377;BME280;35253;34.688;33.040;2023-02-15T08:00:08;101481.22;;;12.96;100.00
49377;BME280;35253;34.688;33.040;2023-02-15T08:02:34;101484.34;;;13.04;100.00
49377;BME280;35253;34.688;33.040;2023-02-15T08:05:02;101485.81;;;13.25;100.00
49377;BME280;35253;34.688;33.040;2023-02-15T08:07:27;101487.13;;;13.34;100.00
49377;BME280;35253;34.688;33.040;2023-02-15T08:09:53;101485.91;;;13.39;100.00
49377;BME280;35253;34.688;33.040;2023-02-15T08:12:18;101483.13;;;13.41;100.00
49377;BME280;35253;34.688;33.040;2023-02-15T08:14:44;101486.22;;;13.49;100.00
49377;BME280;35253;34.688;33.040;2023-02-15T08:17:09;101485.41;;;13.33;100.00
49377;BME280;35253;34.688;33.040;2023-02-15T08:19:35;101480.81;;;13.35;100.00
49377;BME280;35253;34.688;33.040;2023-02-15T08:22:02;101485.56;;;13.45;100.00
49377;BME280;35253;34.688;33.040;2023-02-15T08:24:32;101489.63;;;13.37;100.00
49377;BME280;35253;34.688;33.040;2023-02-15T08:26:58;101493.66;;;13.44;100.00
49377;BME280;35253;34.688;33.040;2023-02-15T08:29:27;101493.09;;;13.07;100.00
49377;BME280;35253;34.688;33.040;2023-02-15T08:31:54;101494.56;;;13.13;100.00
49377;BME280;35253;34.688;33.040;2023-02-15T08:34:20;101492.16;;;13.24;100.00
49377;BME280;35253;34.688;33.040;2023-02-15T08:36:46;101493.66;;;13.44;100.00
49377;BME280;35253;34.688;33.040;2023-02-15T08:39:12;101496.41;;;13.58;100.00
49377;BME280;35253;34.688;33.040;2023-02-15T08:41:38;101494.88;;;13.54;100.00
49377;BME280;35253;34.688;33.040;2023-02-15T08:44:05;101488.94;;;13.33;100.00
49377;BME280;35253;34.688;33.040;2023-02-15T08:46:31;101493.31;;;13.34;100.00
49377;BME280;35253;34.688;33.040;2023-02-15T08:48:57;101485.97;;;13.53;100.00
49377;BME280;35253;34.688;33.040;2023-02-15T08:51:24;101484.91;;;13.56;100.00
49377;BME280;35253;34.688;33.040;2023-02-15T08:53:51;101475.19;;;13.69;100.00
49377;BME280;35253;34.688;33.040;2023-02-15T08:56:20;101483.22;;;13.69;100.00
49377;BME280;35253;34.688;33.040;2023-02-15T08:58:46;101484.41;;;13.79;100.00
49377;BME280;35253;34.688;33.040;2023-02-15T09:01:13;101490.25;;;13.72;100.00
49377;BME280;35253;34.688;33.040;2023-02-15T09:03:39;101497.06;;;13.77;100.00
49377;BME280;35253;34.688;33.040;2023-02-15T09:06:05;101493.38;;;13.94;100.00
49377;BME280;35253;34.688;33.040;2023-02-15T09:08:31;101489.34;;;14.01;100.00
49377;BME280;35253;34.688;33.040;2023-02-15T09:11:13;101478.06;;;14.10;100.00
49377;BME280;35253;34.688;33.040;2023-02-15T09:13:41;101490.22;;;14.02;100.00
49377;BME280;35253;34.688;33.040;2023-02-15T09:16:08;101487.25;;;14.06;100.00
49377;BME280;35253;34.688;33.040;2023-02-15T09:18:35;101477.44;;;13.91;100.00
49377;BME280;35253;34.688;33.040;2023-02-15T09:21:05;101473.22;;;14.17;100.00
49377;BME280;35253;34.688;33.040;2023-02-15T09:23:31;101467.94;;;14.29;100.00
49377;BME280;35253;34.688;33.040;2023-02-15T09:25:56;101476.63;;;14.05;100.00
49377;BME280;35253;34.688;33.040;2023-02-15T09:28:22;101472.91;;;14.07;100.00
49377;BME280;35253;34.688;33.040;2023-02-15T09:30:47;101471.28;;;14.19;100.00
49377;BME280;35253;34.688;33.040;2023-02-15T09:33:12;101465.06;;;14.32;100.00
49377;BME280;35253;34.688;33.040;2023-02-15T09:35:38;101462.94;;;14.23;100.00
49377;BME280;35253;34.688;33.040;2023-02-15T09:38:03;101474.75;;;14.21;100.00
49377;BME280;35253;34.688;33.040;2023-02-15T09:40:30;101465.31;;;14.43;100.00
49377;BME280;35253;34.688;33.040;2023-02-15T09:43:11;101463.19;;;14.49;100.00
49377;BME280;35253;34.688;33.040;2023-02-15T09:48:25;101459.63;;;14.76;100.00
49377;BME280;35253;34.688;33.040;2023-02-15T09:56:04;101460.31;;;15.07;100.00
49377;BME280;35253;34.688;33.040;2023-02-15T09:59:08;101464.56;;;14.97;100.00
49377;BME280;35253;34.688;33.040;2023-02-15T10:09:10;101456.91;;;14.20;100.00
49377;BME280;35253;34.688;33.040;2023-02-15T10:11:40;101450.78;;;14.32;100.00
49377;BME280;35253;34.688;33.040;2023-02-15T10:14:32;101451.66;;;14.32;100.00
49377;BME280;35253;34.688;33.040;2023-02-15T10:17:18;101448.94;;;13.90;100.00
49377;BME280;35253;34.688;33.040;2023-02-15T10:22:43;101437.78;;;14.40;100.00
49377;BME280;35253;34.688;33.040;2023-02-15T10:28:01;101443.91;;;14.28;100.00
49377;BME280;35253;34.688;33.040;2023-02-15T10:30:43;101440.66;;;14.51;100.00
49377;BME280;35253;34.688;33.040;2023-02-15T10:33:14;101436.63;;;14.58;100.00
49377;BME280;35253;34.688;33.040;2023-02-15T10:38:19;101436.41;;;14.61;100.00
49377;BME280;35253;34.688;33.040;2023-02-15T10:40:51;101429.44;;;14.73;100.00
49377;BME280;35253;34.688;33.040;2023-02-15T10:43:32;101429.88;;;14.79;100.00
49377;BME280;35253;34.688;33.040;2023-02-15T10:52:04;101427.59;;;14.73;100.00
49377;BME280;35253;34.688;33.040;2023-02-15T10:54:13;101432.31;;;14.70;100.00
49377;BME280;35253;34.688;33.040;2023-02-15T10:56:46;101428.75;;;14.69;100.00
49377;BME280;35253;34.688;33.040;2023-02-15T11:01:41;101428.94;;;14.24;100.00
49377;BME280;35253;34.688;33.040;2023-02-15T11:04:14;101431.22;;;13.87;100.00
49377;BME280;35253;34.688;33.040;2023-02-15T11:06:51;101431.75;;;13.64;100.00
49377;BME280;35253;34.688;33.040;2023-02-15T11:09:19;101429.47;;;13.72;100.00
49377;BME280;35253;34.688;33.040;2023-02-15T11:11:48;101436.94;;;13.51;100.00
49377;BME280;35253;34.688;33.040;2023-02-15T11:14:15;101432.16;;;13.72;100.00
49377;BME280;35253;34.688;33.040;2023-02-15T11:16:46;101435.03;;;13.83;100.00
49377;BME280;35253;34.688;33.040;2023-02-15T11:19:20;101438.66;;;13.68;100.00
49377;BME280;35253;34.688;33.040;2023-02-15T11:21:52;101444.91;;;13.53;100.00
49377;BME280;35253;34.688;33.040;2023-02-15T11:24:19;101442.75;;;13.74;100.00
49377;BME280;35253;34.688;33.040;2023-02-15T11:29:33;101448.13;;;13.44;100.00
49377;BME280;35253;34.688;33.040;2023-02-15T11:32:02;101459.63;;;13.30;100.00
49377;BME280;35253;34.688;33.040;2023-02-15T11:36:54;101456.53;;;13.22;100.00
49377;BME280;35253;34.688;33.040;2023-02-15T11:39:20;101454.50;;;13.12;100.00
49377;BME280;35253;34.688;33.040;2023-02-15T11:41:48;101457.25;;;12.94;100.00
49377;BME280;35253;34.688;33.040;2023-02-15T11:46:46;101457.22;;;13.10;100.00
49377;BME280;35253;34.688;33.040;2023-02-15T11:49:22;101451.94;;;12.77;100.00
49377;BME280;35253;34.688;33.040;2023-02-15T11:51:48;101460.84;;;12.78;100.00
49377;BME280;35253;34.688;33.040;2023-02-15T11:54:17;101462.91;;;12.73;100.00
49377;BME280;35253;34.688;33.040;2023-02-15T11:56:42;101462.66;;;12.77;100.00
49377;BME280;35253;34.688;33.040;2023-02-15T11:59:12;101464.66;;;12.74;100.00
49377;BME280;35253;34.688;33.040;2023-02-15T12:01:42;101465.75;;;12.70;100.00
49377;BME280;35253;34.688;33.040;2023-02-15T12:04:10;101467.47;;;12.55;100.00
49377;BME280;35253;34.688;33.040;2023-02-15T12:06:55;101471.69;;;12.43;100.00
49377;BME280;35253;34.688;33.040;2023-02-15T12:09:33;101463.53;;;12.29;100.00
49377;BME280;35253;34.688;33.040;2023-02-15T12:14:57;101480.59;;;12.27;100.00
49377;BME280;35253;34.688;33.040;2023-02-15T12:22:49;101484.31;;;12.07;100.00
49377;BME280;35253;34.688;33.040;2023-02-15T12:25:22;101483.47;;;12.06;100.00
49377;BME280;35253;34.688;33.040;2023-02-15T12:27:51;101490.72;;;12.04;100.00
49377;BME280;35253;34.688;33.040;2023-02-15T12:32:54;101484.25;;;11.91;100.00
49377;BME280;35253;34.688;33.040;2023-02-15T12:35:27;101480.97;;;11.86;100.00
49377;BME280;35253;34.688;33.040;2023-02-15T12:37:54;101481.66;;;11.90;100.00
49377;BME280;35253;34.688;33.040;2023-02-15T12:40:24;101479.22;;;12.02;100.00
49377;BME280;35253;34.688;33.040;2023-02-15T12:42:51;101482.06;;;11.82;100.00
49377;BME280;35253;34.688;33.040;2023-02-15T12:45:25;101479.97;;;11.89;100.00
49377;BME280;35253;34.688;33.040;2023-02-15T12:50:35;101483.63;;;12.03;100.00
49377;BME280;35253;34.688;33.040;2023-02-15T12:53:08;101480.19;;;12.01;100.00
49377;BME280;35253;34.688;33.040;2023-02-15T12:55:40;101474.34;;;12.10;100.00
49377;BME280;35253;34.688;33.040;2023-02-15T13:00:39;101481.75;;;12.05;100.00
49377;BME280;35253;34.688;33.040;2023-02-15T13:03:13;101473.09;;;12.33;100.00
49377;BME280;35253;34.688;33.040;2023-02-15T13:05:42;101471.63;;;12.60;100.00
49377;BME280;35253;34.688;33.040;2023-02-15T13:08:10;101468.63;;;12.82;100.00
49377;BME280;35253;34.688;33.040;2023-02-15T13:10:39;101472.94;;;13.00;100.00
49377;BME280;35253;34.688;33.040;2023-02-15T13:13:09;101476.88;;;13.11;100.00
49377;BME280;35253;34.688;33.040;2023-02-15T13:15:36;101477.19;;;13.36;100.00
49377;BME280;35253;34.688;33.040;2023-02-15T13:18:02;101471.75;;;13.67;100.00
49377;BME280;35253;34.688;33.040;2023-02-15T13:20:29;101473.75;;;13.64;100.00
49377;BME280;35253;34.688;33.040;2023-02-15T13:23:05;101468.75;;;13.58;100.00
49377;BME280;35253;34.688;33.040;2023-02-15T13:25:44;101474.41;;;14.55;100.00
49377;BME280;35253;34.688;33.040;2023-02-15T13:28:13;101476.75;;;14.88;100.00
49377;BME280;35253;34.688;33.040;2023-02-15T13:30:42;101471.13;;;15.73;100.00
49377;BME280;35253;34.688;33.040;2023-02-15T13:33:21;101478.59;;;16.20;100.00
49377;BME280;35253;34.688;33.040;2023-02-15T13:41:04;101477.50;;;17.70;100.00
49377;BME280;35253;34.688;33.040;2023-02-15T13:43:37;101473.34;;;18.12;100.00
49377;BME280;35253;34.688;33.040;2023-02-15T13:51:16;101462.97;;;18.74;100.00
49377;BME280;35253;34.688;33.040;2023-02-15T13:54:01;101467.41;;;18.75;95.81
49377;BME280;35253;34.688;33.040;2023-02-15T14:09:16;101473.19;;;17.20;100.00
49377;BME280;35253;34.688;33.040;2023-02-15T14:19:44;101473.78;;;16.99;100.00
49377;BME280;35253;34.688;33.040;2023-02-15T14:27:21;101485.75;;;16.95;100.00
49377;BME280;35253;34.688;33.040;2023-02-15T14:30:00;101474.31;;;17.04;100.00
49377;BME280;35253;34.688;33.040;2023-02-15T14:32:48;101481.91;;;17.23;100.00
49377;BME280;35253;34.688;33.040;2023-02-15T14:35:18;101478.97;;;16.90;100.00
49377;BME280;35253;34.688;33.040;2023-02-15T14:43:25;101493.84;;;15.94;100.00
49377;BME280;35253;34.688;33.040;2023-02-15T14:46:03;101492.63;;;15.73;100.00
49377;BME280;35253;34.688;33.040;2023-02-15T14:48:34;101493.84;;;15.55;100.00
49377;BME280;35253;34.688;33.040;2023-02-15T14:51:01;101505.91;;;15.35;100.00
49377;BME280;35253;34.688;33.040;2023-02-15T14:58:32;101506.00;;;14.93;100.00
49377;BME280;35253;34.688;33.040;2023-02-15T15:01:03;101514.75;;;14.82;100.00